Time;durP1;ratioP1;P1;durP2;ratioP2;P2;SDS_P1;SDS_P2;PMS_P1;PMS_P2;Temp;Humidity;BMP_temperature;BMP_pressure;BME280_temperature;BME280_humidity;BME280_pressure;Samples;Min_cycle;Max_cycle;Signal;HPM_P1;HPM_P2
2022/12/01 00:02:22;;;;;;;5.00;3.50;;;;;;;;;;108223;1266;22596;-30
2022/12/01 00:04:54;;;;;;;6.40;3.90;;;;;;;;;;108213;1270;22555;-30
2022/12/01 00:07:28;;;;;;;5.40;3.50;;;;;;;;;;108176;1277;23920;-30
2022/12/01 00:13:05;;;;;;;5.80;3.90;;;;;;;;;;107965;1277;22565;-30
2022/12/01 00:15:39;;;;;;;6.20;3.90;;;;;;;;;;108180;1269;22510;-30
2022/12/01 00:18:12;;;;;;;6.00;4.00;;;;;;;;;;108127;1271;22504;-30
2022/12/01 00:20:43;;;;;;;;;;;;;;;;;;108185;1272;22559;-30
2022/12/01 00:23:15;;;;;;;5.30;3.60;;;;;;;;;;108147;1277;22568;-30
2022/12/01 00:25:48;;;;;;;5.60;3.70;;;;;;;;;;108194;1268;22577;-30
2022/12/01 00:28:21;;;;;;;6.10;3.90;;;;;;;;;;108222;1270;22565;-30
2022/12/01 00:30:53;;;;;;;5.90;3.80;;;;;;;;;;108057;1272;22599;-30
2022/12/01 00:33:26;;;;;;;5.90;3.60;;;;;;;;;;108135;1274;22974;-30
2022/12/01 00:36:02;;;;;;;5.60;3.80;;;;;;;;;;108101;1272;22609;-30
2022/12/01 00:38:36;;;;;;;5.60;3.70;;;;;;;;;;108142;1276;22608;-30
2022/12/01 00:41:09;;;;;;;5.90;3.80;;;;;;;;;;108171;1276;22582;-31
2022/12/01 00:43:44;;;;;;;6.00;3.80;;;;;;;;;;108190;1272;22769;-31
2022/12/01 00:46:17;;;;;;;6.20;3.60;;;;;;;;;;108223;1278;22509;-31
2022/12/01 00:48:53;;;;;;;5.80;3.80;;;;;;;;;;108221;1270;25490;-31
2022/12/01 00:51:26;;;;;;;5.60;3.60;;;;;;;;;;108083;1269;22504;-30
2022/12/01 00:53:59;;;;;;;5.70;3.80;;;;;;;;;;108114;1272;22522;-31
2022/12/01 00:56:31;;;;;;;5.90;3.80;;;;;;;;;;108170;1271;23161;-31
2022/12/01 00:59:06;;;;;;;5.60;3.60;;;;;;;;;;108110;1272;22534;-31
2022/12/01 01:01:38;;;;;;;5.50;3.80;;;;;;;;;;108060;1272;22569;-31
2022/12/01 01:04:10;;;;;;;6.20;4.10;;;;;;;;;;108064;1269;25378;-31
2022/12/01 01:06:43;;;;;;;6.10;3.60;;;;;;;;;;108168;1270;23127;-31
2022/12/01 01:09:16;;;;;;;6.00;3.90;;;;;;;;;;108160;1272;22563;-31
2022/12/01 01:11:48;;;;;;;5.30;3.60;;;;;;;;;;108128;1271;22557;-30
2022/12/01 01:14:21;;;;;;;5.60;3.90;;;;;;;;;;108121;1272;22517;-31
2022/12/01 01:16:55;;;;;;;5.60;3.80;;;;;;;;;;108145;1271;23280;-31
2022/12/01 01:19:27;;;;;;;5.70;3.90;;;;;;;;;;108131;1272;22574;-31
2022/12/01 01:21:59;;;;;;;5.20;3.50;;;;;;;;;;108155;1269;22560;-31
2022/12/01 01:24:31;;;;;;;6.00;3.70;;;;;;;;;;108170;1271;23045;-30
2022/12/01 01:27:06;;;;;;;5.50;3.60;;;;;;;;;;108170;1265;22634;-30
2022/12/01 01:29:39;;;;;;;5.40;3.90;;;;;;;;;;108198;1270;22614;-31
2022/12/01 01:32:10;;;;;;;;;;;;;;;;;;108091;1268;23458;-31
2022/12/01 01:34:44;;;;;;;5.60;3.70;;;;;;;;;;108151;1271;25324;-31
2022/12/01 01:37:22;;;;;;;5.20;3.30;;;;;;;;;;108152;1264;25269;-31
2022/12/01 01:39:55;;;;;;;5.30;3.70;;;;;;;;;;108099;1271;22558;-31
2022/12/01 01:42:29;;;;;;;5.20;3.80;;;;;;;;;;108138;1271;24222;-31
2022/12/01 01:45:03;;;;;;;5.40;3.40;;;;;;;;;;108132;1271;22593;-31
2022/12/01 01:47:39;;;;;;;5.70;3.60;;;;;;;;;;108164;1271;24192;-31
2022/12/01 01:50:15;;;;;;;5.20;3.40;;;;;;;;;;108222;1270;22648;-31
2022/12/01 01:52:52;;;;;;;5.30;3.50;;;;;;;;;;108307;1271;22577;-31
2022/12/01 01:55:24;;;;;;;5.40;3.80;;;;;;;;;;108124;1271;22588;-31
2022/12/01 01:57:56;;;;;;;6.50;3.80;;;;;;;;;;108109;1272;22762;-31
2022/12/01 02:00:32;;;;;;;5.30;3.90;;;;;;;;;;108120;1265;22711;-30
2022/12/01 02:03:09;;;;;;;5.00;3.30;;;;;;;;;;108170;1271;22493;-31
2022/12/01 02:05:44;;;;;;;5.50;3.60;;;;;;;;;;108209;1272;23100;-31
2022/12/01 02:08:19;;;;;;;5.70;3.80;;;;;;;;;;108169;1271;22555;-31
2022/12/01 02:11:09;;;;;;;6.00;3.90;;;;;;;;;;108155;1275;22503;-31
2022/12/01 02:13:53;;;;;;;6.00;3.50;;;;;;;;;;108119;1272;22575;-31
2022/12/01 02:16:41;;;;;;;5.20;3.40;;;;;;;;;;108152;1278;22504;-31
2022/12/01 02:19:55;;;;;;;5.40;3.60;;;;;;;;;;108111;1271;22635;-31
2022/12/01 02:22:45;;;;;;;5.30;3.60;;;;;;;;;;108079;1271;22507;-31
2022/12/01 02:25:33;;;;;;;5.60;3.80;;;;;;;;;;108170;1272;22563;-30
2022/12/01 02:28:39;;;;;;;4.90;3.30;;;;;;;;;;108198;1271;22618;-31
2022/12/01 02:31:19;;;;;;;5.10;3.40;;;;;;;;;;108160;1275;23029;-31
2022/12/01 02:33:59;;;;;;;5.40;3.40;;;;;;;;;;108136;1271;22508;-30
2022/12/01 02:36:43;;;;;;;5.10;3.20;;;;;;;;;;108120;1271;25425;-31
2022/12/01 02:39:24;;;;;;;5.50;3.50;;;;;;;;;;108129;1271;22568;-31
2022/12/01 02:42:04;;;;;;;5.30;3.50;;;;;;;;;;108089;1271;22595;-31
2022/12/01 02:44:44;;;;;;;5.60;3.80;;;;;;;;;;108138;1270;22662;-31
2022/12/01 02:47:20;;;;;;;5.80;3.60;;;;;;;;;;108156;1271;22504;-31
2022/12/01 02:50:02;;;;;;;5.80;3.90;;;;;;;;;;108172;1271;22495;-31
2022/12/01 02:52:36;;;;;;;5.20;3.50;;;;;;;;;;108126;1269;22555;-31
2022/12/01 02:55:11;;;;;;;5.20;3.80;;;;;;;;;;108113;1272;22617;-30
2022/12/01 02:57:46;;;;;;;5.10;3.40;;;;;;;;;;108158;1272;23024;-30
2022/12/01 03:00:20;;;;;;;4.60;3.30;;;;;;;;;;108108;1271;22563;-31
2022/12/01 03:03:17;;;;;;;5.20;3.60;;;;;;;;;;108113;1277;22559;-31
2022/12/01 03:06:00;;;;;;;5.20;3.30;;;;;;;;;;108179;1278;22722;-30
2022/12/01 03:08:44;;;;;;;5.20;3.30;;;;;;;;;;108190;1272;22668;-31
2022/12/01 03:11:28;;;;;;;5.00;3.30;;;;;;;;;;108103;1272;25970;-31
2022/12/01 03:14:20;;;;;;;5.20;3.40;;;;;;;;;;108071;1271;22636;-31
2022/12/01 03:16:55;;;;;;;5.20;3.50;;;;;;;;;;108106;1271;22613;-31
2022/12/01 03:19:35;;;;;;;5.20;3.40;;;;;;;;;;108111;1271;22550;-31
2022/12/01 03:22:16;;;;;;;5.70;3.90;;;;;;;;;;108149;1275;22585;-31
2022/12/01 03:24:53;;;;;;;5.10;3.30;;;;;;;;;;108137;1271;22704;-31
2022/12/01 03:27:35;;;;;;;5.10;3.60;;;;;;;;;;108227;1271;22514;-31
2022/12/01 03:30:13;;;;;;;5.00;3.20;;;;;;;;;;108123;1265;22564;-31
2022/12/01 03:32:51;;;;;;;5.00;3.40;;;;;;;;;;108204;1265;22601;-31
2022/12/01 03:35:31;;;;;;;5.40;3.40;;;;;;;;;;108092;1277;23898;-31
2022/12/01 03:38:10;;;;;;;5.10;3.40;;;;;;;;;;108084;1264;22588;-31
2022/12/01 03:40:43;;;;;;;5.40;3.60;;;;;;;;;;108098;1277;22584;-31
2022/12/01 03:43:21;;;;;;;5.30;3.50;;;;;;;;;;108108;1278;23753;-31
2022/12/01 03:46:01;;;;;;;5.40;3.60;;;;;;;;;;108129;1272;23737;-30
2022/12/01 03:48:34;;;;;;;4.80;3.20;;;;;;;;;;108179;1274;22597;-30
2022/12/01 03:51:16;;;;;;;5.30;3.80;;;;;;;;;;108183;1270;22604;-31
2022/12/01 03:53:57;;;;;;;4.70;3.40;;;;;;;;;;108151;1271;22593;-31
2022/12/01 03:56:36;;;;;;;5.40;3.30;;;;;;;;;;108115;1272;22575;-30
2022/12/01 03:59:11;;;;;;;6.00;4.00;;;;;;;;;;108098;1277;22593;-31
2022/12/01 04:01:44;;;;;;;4.90;3.40;;;;;;;;;;108111;1265;22557;-30
2022/12/01 04:04:17;;;;;;;5.30;3.60;;;;;;;;;;108110;1271;22559;-30
2022/12/01 04:06:50;;;;;;;;;;;;;;;;;;108174;1277;22562;-31
2022/12/01 04:09:26;;;;;;;4.50;3.10;;;;;;;;;;108136;1271;22560;-31
2022/12/01 04:15:13;;;;;;;5.00;3.50;;;;;;;;;;108119;1271;22869;-31
2022/12/01 04:18:11;;;;;;;5.00;3.30;;;;;;;;;;108095;1271;22565;-30
2022/12/01 04:20:46;;;;;;;5.00;3.40;;;;;;;;;;108113;1271;25523;-31
2022/12/01 04:26:06;;;;;;;4.70;3.50;;;;;;;;;;108124;1271;22696;-31
2022/12/01 04:28:36;;;;;;;;;;;;;;;;;;108192;1271;22571;-30
2022/12/01 04:31:11;;;;;;;4.70;3.20;;;;;;;;;;108168;1272;22499;-31
2022/12/01 04:33:44;;;;;;;4.80;3.30;;;;;;;;;;108182;1272;22677;-31
2022/12/01 04:36:16;;;;;;;5.00;3.40;;;;;;;;;;108071;1271;25409;-31
2022/12/01 04:38:48;;;;;;;5.30;3.80;;;;;;;;;;108091;1271;22542;-30
2022/12/01 04:41:21;;;;;;;4.70;3.30;;;;;;;;;;108094;1272;22686;-31
2022/12/01 04:43:55;;;;;;;5.00;3.60;;;;;;;;;;108066;1272;22505;-31
2022/12/01 04:46:32;;;;;;;5.40;4.10;;;;;;;;;;108094;1273;22610;-31
2022/12/01 04:49:04;;;;;;;5.30;3.70;;;;;;;;;;108140;1272;22566;-31
2022/12/01 04:51:37;;;;;;;5.40;3.60;;;;;;;;;;108171;1272;25485;-31
2022/12/01 04:54:09;;;;;;;5.20;3.80;;;;;;;;;;108176;1268;22618;-30
2022/12/01 04:56:41;;;;;;;5.00;3.70;;;;;;;;;;108099;1265;22661;-30
2022/12/01 04:59:14;;;;;;;5.30;3.90;;;;;;;;;;108132;1271;22550;-30
2022/12/01 05:01:46;;;;;;;5.00;3.70;;;;;;;;;;108093;1277;22560;-30
2022/12/01 05:04:20;;;;;;;5.20;3.70;;;;;;;;;;108119;1278;22627;-31
2022/12/01 05:06:57;;;;;;;5.10;3.80;;;;;;;;;;108135;1271;22707;-30
2022/12/01 05:09:30;;;;;;;5.30;3.60;;;;;;;;;;108216;1271;22592;-31
2022/12/01 05:12:06;;;;;;;5.40;3.60;;;;;;;;;;108181;1271;26016;-30
2022/12/01 05:14:39;;;;;;;5.50;3.90;;;;;;;;;;108204;1272;22691;-31
2022/12/01 05:17:12;;;;;;;5.10;3.70;;;;;;;;;;108090;1272;23910;-31
2022/12/01 05:22:37;;;;;;;5.40;3.70;;;;;;;;;;108132;1272;24895;-31
2022/12/01 05:25:10;;;;;;;5.30;3.80;;;;;;;;;;108111;1271;22986;-31
2022/12/01 05:27:45;;;;;;;5.00;3.50;;;;;;;;;;108265;1271;22629;-30
2022/12/01 05:30:19;;;;;;;5.20;3.50;;;;;;;;;;108139;1271;24238;-31
2022/12/01 05:32:52;;;;;;;5.40;3.90;;;;;;;;;;108012;1267;22561;-31
2022/12/01 05:35:24;;;;;;;5.00;3.80;;;;;;;;;;108164;1272;22923;-31
2022/12/01 05:37:56;;;;;;;5.10;3.60;;;;;;;;;;108104;1277;22477;-31
2022/12/01 05:40:29;;;;;;;5.40;3.70;;;;;;;;;;108109;1269;22505;-31
2022/12/01 05:43:02;;;;;;;5.20;3.70;;;;;;;;;;108141;1279;22605;-31
2022/12/01 05:45:38;;;;;;;5.30;3.70;;;;;;;;;;108115;1277;23347;-31
2022/12/01 05:48:11;;;;;;;5.30;3.80;;;;;;;;;;108129;1271;22576;-31
2022/12/01 05:50:46;;;;;;;5.30;3.90;;;;;;;;;;108160;1275;22568;-31
2022/12/01 05:53:20;;;;;;;5.00;3.60;;;;;;;;;;108161;1265;22653;-31
2022/12/01 05:55:56;;;;;;;5.00;3.70;;;;;;;;;;108172;1278;22565;-30
2022/12/01 05:58:28;;;;;;;5.20;3.80;;;;;;;;;;108222;1271;22526;-31
2022/12/01 06:01:01;;;;;;;5.10;3.70;;;;;;;;;;108067;1278;22547;-31
2022/12/01 06:03:33;;;;;;;5.10;3.80;;;;;;;;;;108123;1271;22586;-31
2022/12/01 06:06:08;;;;;;;5.00;3.60;;;;;;;;;;108122;1272;23097;-31
2022/12/01 06:08:40;;;;;;;5.30;3.90;;;;;;;;;;108129;1270;25042;-30
2022/12/01 06:11:16;;;;;;;5.20;3.90;;;;;;;;;;108140;1268;22587;-31
2022/12/01 06:13:52;;;;;;;5.00;3.50;;;;;;;;;;108159;1271;25238;-31
2022/12/01 06:16:24;;;;;;;5.30;3.60;;;;;;;;;;108179;1275;25989;-31
2022/12/01 06:18:57;;;;;;;5.40;3.80;;;;;;;;;;108092;1272;22593;-31
2022/12/01 06:21:30;;;;;;;5.70;4.00;;;;;;;;;;108111;1278;22569;-31
2022/12/01 06:24:08;;;;;;;5.10;3.60;;;;;;;;;;108140;1269;22563;-31
2022/12/01 06:26:42;;;;;;;5.30;3.70;;;;;;;;;;108107;1271;22585;-31
2022/12/01 06:29:16;;;;;;;5.00;3.90;;;;;;;;;;108192;1272;22820;-31
2022/12/01 06:31:49;;;;;;;5.10;3.50;;;;;;;;;;108368;1275;22588;-31
2022/12/01 06:34:21;;;;;;;5.30;3.80;;;;;;;;;;108304;1271;23011;-30
2022/12/01 06:36:55;;;;;;;5.30;3.70;;;;;;;;;;108276;1273;23153;-31
2022/12/01 06:39:27;;;;;;;5.00;3.40;;;;;;;;;;108094;1271;25415;-31
2022/12/01 06:42:00;;;;;;;4.90;3.50;;;;;;;;;;108110;1271;22529;-31
2022/12/01 06:44:32;;;;;;;5.20;3.70;;;;;;;;;;108127;1264;22606;-31
2022/12/01 06:47:07;;;;;;;5.00;3.80;;;;;;;;;;108140;1272;22563;-31
2022/12/01 06:49:44;;;;;;;5.10;3.60;;;;;;;;;;108203;1278;22513;-31
2022/12/01 06:52:19;;;;;;;6.60;3.90;;;;;;;;;;108397;1278;22569;-31
2022/12/01 06:54:52;;;;;;;5.10;3.60;;;;;;;;;;108247;1271;27119;-31
2022/12/01 06:57:24;;;;;;;5.60;3.90;;;;;;;;;;108178;1272;22574;-31
2022/12/01 06:59:57;;;;;;;5.40;4.00;;;;;;;;;;107874;1271;341764;-31
2022/12/01 07:02:29;;;;;;;5.30;3.60;;;;;;;;;;108127;1272;22577;-31
2022/12/01 07:05:01;;;;;;;5.60;3.60;;;;;;;;;;108106;1271;24176;-31
2022/12/01 07:07:39;;;;;;;5.10;3.60;;;;;;;;;;108098;1271;24267;-31
2022/12/01 07:10:17;;;;;;;6.40;3.50;;;;;;;;;;108129;1272;22498;-31
2022/12/01 07:12:51;;;;;;;5.60;3.50;;;;;;;;;;108187;1271;22552;-31
2022/12/01 07:15:24;;;;;;;6.10;3.70;;;;;;;;;;108166;1273;26008;-31
2022/12/01 07:18:01;;;;;;;5.90;3.90;;;;;;;;;;108167;1271;22596;-31
2022/12/01 07:20:35;;;;;;;5.80;4.00;;;;;;;;;;108091;1271;22612;-31
2022/12/01 07:23:08;;;;;;;6.60;4.70;;;;;;;;;;108115;1271;22673;-31
2022/12/01 07:25:41;;;;;;;5.30;3.50;;;;;;;;;;108148;1271;22738;-30
2022/12/01 07:28:13;;;;;;;6.10;3.90;;;;;;;;;;108125;1272;22578;-30
2022/12/01 07:30:46;;;;;;;5.90;3.70;;;;;;;;;;108180;1277;22543;-28
2022/12/01 07:33:18;;;;;;;5.90;3.80;;;;;;;;;;108195;1264;22594;-28
2022/12/01 07:35:50;;;;;;;5.00;3.70;;;;;;;;;;108179;1271;22510;-28
2022/12/01 07:38:24;;;;;;;6.30;3.80;;;;;;;;;;108138;1279;22987;-28
2022/12/01 07:41:02;;;;;;;6.10;4.00;;;;;;;;;;108125;1274;22896;-28
2022/12/01 07:43:35;;;;;;;5.90;3.70;;;;;;;;;;108154;1272;22553;-28
2022/12/01 07:46:09;;;;;;;;;;;;;;;;;;108159;1278;22549;-28
2022/12/01 07:48:44;;;;;;;5.90;3.90;;;;;;;;;;108155;1279;22573;-28
2022/12/01 07:51:21;;;;;;;6.70;3.80;;;;;;;;;;108129;1277;24206;-28
2022/12/01 07:53:55;;;;;;;5.80;4.00;;;;;;;;;;108186;1271;22560;-28
2022/12/01 07:56:27;;;;;;;11.20;4.20;;;;;;;;;;108200;1271;22581;-32
2022/12/01 07:59:00;;;;;;;7.40;4.20;;;;;;;;;;108127;1265;22566;-32
2022/12/01 08:01:33;;;;;;;8.00;4.10;;;;;;;;;;108088;1281;22573;-33
2022/12/01 08:04:05;;;;;;;7.40;4.00;;;;;;;;;;108097;1272;25280;-33
2022/12/01 08:06:41;;;;;;;7.70;5.00;;;;;;;;;;108139;1272;22578;-33
2022/12/01 08:09:13;;;;;;;6.60;4.80;;;;;;;;;;108147;1278;22503;-33
2022/12/01 08:11:46;;;;;;;6.70;4.70;;;;;;;;;;108099;1274;22628;-33
2022/12/01 08:14:19;;;;;;;6.60;5.20;;;;;;;;;;108170;1271;22706;-33
2022/12/01 08:16:54;;;;;;;6.80;5.00;;;;;;;;;;108126;1273;23841;-33
2022/12/01 08:19:28;;;;;;;8.90;5.20;;;;;;;;;;108150;1272;24143;-33
2022/12/01 08:22:00;;;;;;;7.40;5.10;;;;;;;;;;108101;1272;25414;-33
2022/12/01 08:24:33;;;;;;;8.20;5.30;;;;;;;;;;108115;1278;25419;-33
2022/12/01 08:27:05;;;;;;;8.10;5.10;;;;;;;;;;108166;1270;22648;-33
2022/12/01 08:29:45;;;;;;;8.30;5.90;;;;;;;;;;108128;1272;24141;-33
2022/12/01 08:32:17;;;;;;;8.60;5.30;;;;;;;;;;108138;1279;25969;-33
2022/12/01 08:34:56;;;;;;;7.70;5.30;;;;;;;;;;108159;1268;23002;-33
2022/12/01 08:37:29;;;;;;;6.50;4.80;;;;;;;;;;108175;1275;23830;-33
2022/12/01 08:40:01;;;;;;;6.70;4.70;;;;;;;;;;108149;1269;22590;-33
2022/12/01 08:42:33;;;;;;;7.10;5.00;;;;;;;;;;108066;1274;22504;-33
2022/12/01 08:45:10;;;;;;;7.50;5.10;;;;;;;;;;108106;1273;22697;-33
2022/12/01 08:47:45;;;;;;;8.20;5.00;;;;;;;;;;108139;1277;22555;-33
2022/12/01 08:50:18;;;;;;;7.00;5.00;;;;;;;;;;108119;1278;22572;-33
2022/12/01 08:52:51;;;;;;;7.50;5.00;;;;;;;;;;108265;1271;22676;-33
2022/12/01 08:55:23;;;;;;;;;;;;;;;;;;108175;1268;22550;-33
2022/12/01 08:57:57;;;;;;;7.20;4.80;;;;;;;;;;108139;1274;22645;-33
2022/12/01 09:00:31;;;;;;;7.20;5.10;;;;;;;;;;108149;1271;22555;-33
2022/12/01 09:03:03;;;;;;;7.50;5.20;;;;;;;;;;108097;1274;22571;-33
2022/12/01 09:05:36;;;;;;;7.00;4.90;;;;;;;;;;108116;1278;22615;-33
2022/12/01 09:11:11;;;;;;;7.00;5.00;;;;;;;;;;107898;1280;22562;-33
2022/12/01 09:13:44;;;;;;;6.50;4.80;;;;;;;;;;108121;1278;22577;-33
2022/12/01 09:16:23;;;;;;;6.80;4.80;;;;;;;;;;108140;1278;22605;-33
2022/12/01 09:18:58;;;;;;;6.90;4.50;;;;;;;;;;108123;1279;22615;-33
2022/12/01 09:21:35;;;;;;;7.60;5.00;;;;;;;;;;108106;1278;22639;-33
2022/12/01 09:24:12;;;;;;;7.90;4.90;;;;;;;;;;108113;1277;22589;-33
2022/12/01 09:26:45;;;;;;;6.40;5.00;;;;;;;;;;108126;1271;22565;-33
2022/12/01 09:29:20;;;;;;;7.30;5.40;;;;;;;;;;108116;1278;22628;-32
2022/12/01 09:31:54;;;;;;;7.20;5.50;;;;;;;;;;108096;1278;22550;-33
2022/12/01 09:34:28;;;;;;;8.00;5.00;;;;;;;;;;108160;1273;22588;-33
2022/12/01 09:37:00;;;;;;;7.00;4.90;;;;;;;;;;108166;1278;22641;-34
2022/12/01 09:39:34;;;;;;;6.70;5.10;;;;;;;;;;108156;1265;23020;-32
2022/12/01 09:42:15;;;;;;;6.40;4.90;;;;;;;;;;108104;1273;24783;-32
2022/12/01 09:44:54;;;;;;;6.30;5.00;;;;;;;;;;108111;1278;22594;-33
2022/12/01 09:47:31;;;;;;;7.40;5.40;;;;;;;;;;108133;1272;22615;-33
2022/12/01 09:50:12;;;;;;;6.60;5.10;;;;;;;;;;108095;1272;22586;-33
2022/12/01 09:52:47;;;;;;;7.50;5.70;;;;;;;;;;108115;1278;22569;-33
2022/12/01 09:55:24;;;;;;;6.30;4.90;;;;;;;;;;108204;1272;22598;-32
2022/12/01 09:57:59;;;;;;;7.10;5.60;;;;;;;;;;108153;1275;22512;-34
2022/12/01 10:00:36;;;;;;;7.00;5.40;;;;;;;;;;108133;1278;22578;-32
2022/12/01 10:03:27;;;;;;;6.80;5.20;;;;;;;;;;108104;1273;23589;-32
2022/12/01 10:06:06;;;;;;;6.40;5.20;;;;;;;;;;108144;1278;22566;-33
2022/12/01 10:08:50;;;;;;;6.70;5.00;;;;;;;;;;108028;1273;22570;-33
2022/12/01 10:11:33;;;;;;;7.00;5.10;;;;;;;;;;108091;1278;22506;-33
2022/12/01 10:14:11;;;;;;;6.80;5.40;;;;;;;;;;108094;1273;22683;-32
2022/12/01 10:16:53;;;;;;;7.10;5.20;;;;;;;;;;108109;1277;22858;-32
2022/12/01 10:19:31;;;;;;;6.70;5.30;;;;;;;;;;108106;1279;22516;-33
2022/12/01 10:22:43;;;;;;;8.10;5.50;;;;;;;;;;108086;1278;25396;-33
2022/12/01 10:25:24;;;;;;;6.70;5.20;;;;;;;;;;108015;1274;22580;-33
2022/12/01 10:28:30;;;;;;;7.20;5.80;;;;;;;;;;108076;1278;22658;-33
2022/12/01 10:31:14;;;;;;;9.00;5.70;;;;;;;;;;108042;1277;22573;-31
2022/12/01 10:34:01;;;;;;;7.00;5.30;;;;;;;;;;108039;1272;22627;-33
2022/12/01 10:36:35;;;;;;;7.00;5.50;;;;;;;;;;108131;1276;22563;-33
2022/12/01 10:39:10;;;;;;;6.90;5.40;;;;;;;;;;108126;1277;25428;-32
2022/12/01 10:41:43;;;;;;;8.40;5.80;;;;;;;;;;108108;1277;22531;-32
2022/12/01 10:44:17;;;;;;;7.10;5.20;;;;;;;;;;108112;1280;22978;-33
2022/12/01 10:46:55;;;;;;;7.00;5.20;;;;;;;;;;108078;1275;22712;-32
2022/12/01 10:49:39;;;;;;;6.80;5.60;;;;;;;;;;108050;1275;22584;-32
2022/12/01 10:52:36;;;;;;;6.70;5.30;;;;;;;;;;108133;1277;23017;-32
2022/12/01 10:55:29;;;;;;;7.40;5.30;;;;;;;;;;108194;1278;22718;-33
2022/12/01 10:58:14;;;;;;;6.50;5.20;;;;;;;;;;108174;1278;22516;-33
2022/12/01 11:00:59;;;;;;;7.50;5.10;;;;;;;;;;108176;1279;24219;-33
2022/12/01 11:03:34;;;;;;;7.20;5.60;;;;;;;;;;108155;1278;22655;-33
2022/12/01 11:06:10;;;;;;;6.40;5.10;;;;;;;;;;108269;1281;22567;-33
2022/12/01 11:08:48;;;;;;;6.80;5.40;;;;;;;;;;108168;1281;22586;-33
2022/12/01 11:11:35;;;;;;;7.10;5.30;;;;;;;;;;108137;1274;22615;-33
2022/12/01 11:14:30;;;;;;;6.70;5.00;;;;;;;;;;108125;1278;22578;-33
2022/12/01 11:17:23;;;;;;;6.70;5.00;;;;;;;;;;108180;1277;24216;-33
2022/12/01 11:19:59;;;;;;;6.30;5.00;;;;;;;;;;108155;1281;24311;-33
2022/12/01 11:22:38;;;;;;;7.10;5.30;;;;;;;;;;108151;1277;22499;-33
2022/12/01 11:25:24;;;;;;;7.80;5.30;;;;;;;;;;108115;1279;25937;-33
2022/12/01 11:28:00;;;;;;;6.60;5.20;;;;;;;;;;108126;1277;25291;-33
2022/12/01 11:30:36;;;;;;;7.20;5.40;;;;;;;;;;108135;1272;25732;-33
2022/12/01 11:33:10;;;;;;;7.80;5.00;;;;;;;;;;108124;1278;22588;-33
2022/12/01 11:35:53;;;;;;;7.00;5.10;;;;;;;;;;108123;1278;23862;-33
2022/12/01 11:38:33;;;;;;;;;;;;;;;;;;108179;1276;22556;-33
2022/12/01 11:41:06;;;;;;;7.00;5.20;;;;;;;;;;108209;1268;22510;-33
2022/12/01 11:43:41;;;;;;;6.70;5.00;;;;;;;;;;108142;1273;22565;-33
2022/12/01 11:46:14;;;;;;;7.70;5.20;;;;;;;;;;108137;1278;22582;-33
2022/12/01 11:49:00;;;;;;;6.30;4.90;;;;;;;;;;108115;1281;25314;-33
2022/12/01 11:51:37;;;;;;;7.20;5.20;;;;;;;;;;108154;1277;22568;-33
2022/12/01 11:54:21;;;;;;;6.30;4.90;;;;;;;;;;108138;1272;22564;-33
2022/12/01 11:56:59;;;;;;;7.10;5.50;;;;;;;;;;108151;1276;22576;-33
2022/12/01 11:59:39;;;;;;;6.60;5.10;;;;;;;;;;108175;1268;22643;-33
2022/12/01 12:02:34;;;;;;;6.90;4.90;;;;;;;;;;108156;1278;24286;-33
2022/12/01 12:06:04;;;;;;;6.50;5.00;;;;;;;;;;108112;1275;22559;-33
2022/12/01 12:09:00;;;;;;;7.00;5.30;;;;;;;;;;107798;1283;22630;-33
2022/12/01 12:11:46;;;;;;;6.30;4.80;;;;;;;;;;108075;1278;24282;-33
2022/12/01 12:14:45;;;;;;;7.70;5.40;;;;;;;;;;108156;1279;23186;-33
2022/12/01 12:17:51;;;;;;;7.10;5.10;;;;;;;;;;108113;1276;25387;-32
2022/12/01 12:20:48;;;;;;;8.10;5.20;;;;;;;;;;108179;1276;23860;-31
2022/12/01 12:23:37;;;;;;;6.90;5.40;;;;;;;;;;108169;1278;22576;-31
2022/12/01 12:26:19;;;;;;;7.40;5.40;;;;;;;;;;108117;1279;22543;-31
2022/12/01 12:29:20;;;;;;;8.20;5.40;;;;;;;;;;108122;1277;23901;-31
2022/12/01 12:32:16;;;;;;;7.40;5.10;;;;;;;;;;108162;1278;22556;-31
2022/12/01 12:35:02;;;;;;;6.70;5.00;;;;;;;;;;108138;1277;22514;-31
2022/12/01 12:37:46;;;;;;;6.80;4.80;;;;;;;;;;108099;1279;22606;-31
2022/12/01 12:40:28;;;;;;;;;;;;;;;;;;108176;1278;22566;-30
2022/12/01 12:43:21;;;;;;;6.90;4.80;;;;;;;;;;108202;1278;22587;-30
2022/12/01 12:46:07;;;;;;;7.10;5.00;;;;;;;;;;108128;1269;22592;-31
2022/12/01 12:49:10;;;;;;;8.20;5.60;;;;;;;;;;108118;1273;22603;-31
2022/12/01 12:51:49;;;;;;;7.90;5.40;;;;;;;;;;108187;1276;22592;-30
2022/12/01 12:54:29;;;;;;;7.10;5.30;;;;;;;;;;108151;1280;22827;-32
2022/12/01 12:57:16;;;;;;;7.30;5.40;;;;;;;;;;108096;1279;22563;-29
2022/12/01 12:59:53;;;;;;;7.80;5.30;;;;;;;;;;108156;1277;22715;-32
2022/12/01 13:02:35;;;;;;;7.00;5.30;;;;;;;;;;108117;1271;22657;-33
2022/12/01 13:05:18;;;;;;;6.60;5.10;;;;;;;;;;108125;1268;22580;-32
2022/12/01 13:07:57;;;;;;;8.00;5.40;;;;;;;;;;108106;1273;22631;-32
2022/12/01 13:10:40;;;;;;;7.10;5.00;;;;;;;;;;108132;1278;22561;-32
2022/12/01 13:13:27;;;;;;;7.40;5.30;;;;;;;;;;108117;1280;22587;-32
2022/12/01 13:16:01;;;;;;;7.70;5.30;;;;;;;;;;108093;1272;22614;-31
2022/12/01 13:18:39;;;;;;;7.50;5.50;;;;;;;;;;108122;1278;22568;-30
2022/12/01 13:21:19;;;;;;;7.00;5.60;;;;;;;;;;108177;1279;25400;-32
2022/12/01 13:23:53;;;;;;;7.00;5.30;;;;;;;;;;108159;1272;25309;-31
2022/12/01 13:26:26;;;;;;;7.70;5.80;;;;;;;;;;108140;1279;22572;-30
2022/12/01 13:28:59;;;;;;;7.20;5.40;;;;;;;;;;108105;1278;22575;-30
2022/12/01 13:31:44;;;;;;;7.30;5.70;;;;;;;;;;108094;1276;22651;-31
2022/12/01 13:34:29;;;;;;;6.80;5.40;;;;;;;;;;108177;1273;22504;-31
2022/12/01 13:37:01;;;;;;;7.30;5.30;;;;;;;;;;108120;1277;22539;-30
2022/12/01 13:39:39;;;;;;;7.20;5.40;;;;;;;;;;108130;1277;25392;-30
2022/12/01 13:42:23;;;;;;;7.80;5.50;;;;;;;;;;108140;1279;22618;-30
2022/12/01 13:44:59;;;;;;;7.30;5.30;;;;;;;;;;108164;1273;22508;-30
2022/12/01 13:47:48;;;;;;;7.70;5.60;;;;;;;;;;108170;1268;22642;-30
2022/12/01 13:50:59;;;;;;;6.40;4.90;;;;;;;;;;108146;1278;22499;-29
2022/12/01 13:53:38;;;;;;;7.00;5.20;;;;;;;;;;108151;1272;22599;-29
2022/12/01 13:56:44;;;;;;;6.70;5.10;;;;;;;;;;108162;1277;22562;-29
2022/12/01 14:00:01;;;;;;;6.10;4.90;;;;;;;;;;108137;1278;25423;-29
2022/12/01 14:02:35;;;;;;;6.90;4.90;;;;;;;;;;108171;1277;22570;-30
2022/12/01 14:05:56;;;;;;;7.60;4.70;;;;;;;;;;108173;1279;22666;-29
2022/12/01 14:08:31;;;;;;;6.60;4.60;;;;;;;;;;108115;1273;25555;-30
2022/12/01 14:11:06;;;;;;;6.90;4.90;;;;;;;;;;108089;1274;22661;-31
2022/12/01 14:14:11;;;;;;;6.30;4.50;;;;;;;;;;108138;1278;22674;-32
2022/12/01 14:16:52;;;;;;;6.50;5.20;;;;;;;;;;108153;1272;23599;-32
2022/12/01 14:19:39;;;;;;;6.90;4.80;;;;;;;;;;108016;1279;22618;-31
2022/12/01 14:22:38;;;;;;;6.30;4.60;;;;;;;;;;108164;1273;22625;-31
2022/12/01 14:25:29;;;;;;;6.30;4.80;;;;;;;;;;108116;1275;22650;-32
2022/12/01 14:28:04;;;;;;;7.50;4.50;;;;;;;;;;108156;1278;22625;-31
2022/12/01 14:31:07;;;;;;;5.90;4.30;;;;;;;;;;108102;1278;22586;-31
2022/12/01 14:33:56;;;;;;;6.50;4.80;;;;;;;;;;108140;1274;22582;-31
2022/12/01 14:36:41;;;;;;;6.00;4.70;;;;;;;;;;108147;1273;22598;-31
2022/12/01 14:39:21;;;;;;;5.70;4.70;;;;;;;;;;108085;1278;22721;-32
2022/12/01 14:41:57;;;;;;;6.90;5.80;;;;;;;;;;108151;1278;22559;-32
2022/12/01 14:44:35;;;;;;;7.00;5.90;;;;;;;;;;108167;1266;22513;-31
2022/12/01 14:47:16;;;;;;;7.60;6.00;;;;;;;;;;108144;1271;22564;-31
2022/12/01 14:49:55;;;;;;;7.80;5.80;;;;;;;;;;108149;1273;22585;-31
2022/12/01 14:52:43;;;;;;;7.00;6.10;;;;;;;;;;108065;1273;22542;-31
2022/12/01 14:55:23;;;;;;;7.70;6.30;;;;;;;;;;108198;1278;22637;-31
2022/12/01 14:58:05;;;;;;;7.30;6.40;;;;;;;;;;108160;1272;22544;-32
2022/12/01 15:00:55;;;;;;;7.20;5.90;;;;;;;;;;107860;1273;339329;-31
2022/12/01 15:03:33;;;;;;;6.90;5.50;;;;;;;;;;108170;1268;22561;-31
2022/12/01 15:06:05;;;;;;;6.90;5.70;;;;;;;;;;108165;1272;22511;-31
2022/12/01 15:08:39;;;;;;;7.10;5.50;;;;;;;;;;108131;1279;22552;-31
2022/12/01 15:11:27;;;;;;;7.40;5.80;;;;;;;;;;108069;1272;22566;-31
2022/12/01 15:14:02;;;;;;;6.90;5.90;;;;;;;;;;108070;1280;25237;-30
2022/12/01 15:16:42;;;;;;;6.50;5.30;;;;;;;;;;108069;1280;22646;-31
2022/12/01 15:19:31;;;;;;;7.40;6.10;;;;;;;;;;108099;1272;22574;-31
2022/12/01 15:22:12;;;;;;;6.50;5.20;;;;;;;;;;108104;1275;22598;-32
2022/12/01 15:24:47;;;;;;;6.60;5.40;;;;;;;;;;108114;1279;22662;-31
2022/12/01 15:27:29;;;;;;;6.90;5.20;;;;;;;;;;108127;1275;24280;-31
2022/12/01 15:30:04;;;;;;;6.80;5.20;;;;;;;;;;108118;1273;24219;-32
2022/12/01 15:32:41;;;;;;;7.10;5.30;;;;;;;;;;108098;1278;22570;-31
2022/12/01 15:35:22;;;;;;;6.30;4.90;;;;;;;;;;108085;1272;22579;-32
2022/12/01 15:37:56;;;;;;;6.40;5.00;;;;;;;;;;108114;1271;22575;-31
2022/12/01 15:40:30;;;;;;;6.40;5.20;;;;;;;;;;108051;1269;22584;-31
2022/12/01 15:43:14;;;;;;;6.80;5.10;;;;;;;;;;108119;1272;22678;-31
2022/12/01 15:45:54;;;;;;;7.10;4.80;;;;;;;;;;108120;1273;22589;-32
2022/12/01 15:48:35;;;;;;;6.00;5.00;;;;;;;;;;108120;1272;24319;-32
2022/12/01 15:51:18;;;;;;;6.80;4.80;;;;;;;;;;108092;1272;26595;-32
2022/12/01 15:53:59;;;;;;;6.50;4.90;;;;;;;;;;108098;1280;22605;-32